sensor_id;sensor_type;location;lat;lon;timestamp;temperature;humidity
17170;DHT22;8700;48.222;16.342;2024-01-16T00:02:28;2.50;99.90
17170;DHT22;8700;48.222;16.342;2024-01-16T00:05:50;2.40;99.90
17170;DHT22;8700;48.222;16.342;2024-01-16T00:09:12;2.20;99.90
17170;DHT22;8700;48.222;16.342;2024-01-16T00:12:34;2.10;99.90
17170;DHT22;8700;48.222;16.342;2024-01-16T00:15:56;2.00;99.90
17170;DHT22;8700;48.222;16.342;2024-01-16T00:19:20;1.90;99.90
17170;DHT22;8700;48.222;16.342;2024-01-16T00:22:42;1.90;99.90
17170;DHT22;8700;48.222;16.342;2024-01-16T00:26:05;1.90;99.90
17170;DHT22;8700;48.222;16.342;2024-01-16T00:29:27;1.90;99.90
17170;DHT22;8700;48.222;16.342;2024-01-16T00:32:51;1.90;99.90
17170;DHT22;8700;48.222;16.342;2024-01-16T00:36:14;1.80;99.90
17170;DHT22;8700;48.222;16.342;2024-01-16T00:39:39;1.90;99.90
17170;DHT22;8700;48.222;16.342;2024-01-16T00:43:01;1.90;99.90
17170;DHT22;8700;48.222;16.342;2024-01-16T00:46:24;1.80;99.90
17170;DHT22;8700;48.222;16.342;2024-01-16T00:49:47;1.90;99.90
17170;DHT22;8700;48.222;16.342;2024-01-16T00:53:11;1.90;99.90
17170;DHT22;8700;48.222;16.342;2024-01-16T00:56:34;1.80;99.90
17170;DHT22;8700;48.222;16.342;2024-01-16T00:59:57;1.80;99.90
17170;DHT22;8700;48.222;16.342;2024-01-16T01:03:19;1.80;99.90
17170;DHT22;8700;48.222;16.342;2024-01-16T01:06:41;1.90;99.90
17170;DHT22;8700;48.222;16.342;2024-01-16T01:10:05;1.80;99.90
17170;DHT22;8700;48.222;16.342;2024-01-16T01:13:28;1.90;99.90
17170;DHT22;8700;48.222;16.342;2024-01-16T01:16:51;1.80;99.90
17170;DHT22;8700;48.222;16.342;2024-01-16T01:20:14;1.90;99.90
17170;DHT22;8700;48.222;16.342;2024-01-16T01:23:36;1.90;99.90
17170;DHT22;8700;48.222;16.342;2024-01-16T01:27:00;2.00;99.90
17170;DHT22;8700;48.222;16.342;2024-01-16T01:30:23;1.90;99.90
17170;DHT22;8700;48.222;16.342;2024-01-16T01:33:45;1.90;99.90
17170;DHT22;8700;48.222;16.342;2024-01-16T01:37:08;1.90;99.90
17170;DHT22;8700;48.222;16.342;2024-01-16T01:40:30;1.90;99.90
17170;DHT22;8700;48.222;16.342;2024-01-16T01:43:54;2.10;99.90
17170;DHT22;8700;48.222;16.342;2024-01-16T01:47:16;2.10;99.90
17170;DHT22;8700;48.222;16.342;2024-01-16T01:50:39;1.90;99.90
17170;DHT22;8700;48.222;16.342;2024-01-16T01:54:01;2.00;99.90
17170;DHT22;8700;48.222;16.342;2024-01-16T01:57:24;2.00;99.90
17170;DHT22;8700;48.222;16.342;2024-01-16T02:00:48;1.90;99.90
17170;DHT22;8700;48.222;16.342;2024-01-16T02:04:12;1.80;99.90
17170;DHT22;8700;48.222;16.342;2024-01-16T02:07:36;1.90;99.90
17170;DHT22;8700;48.222;16.342;2024-01-16T02:10:58;1.90;99.90
17170;DHT22;8700;48.222;16.342;2024-01-16T02:14:21;2.00;99.90
17170;DHT22;8700;48.222;16.342;2024-01-16T02:17:47;1.80;99.90
17170;DHT22;8700;48.222;16.342;2024-01-16T02:21:09;1.90;99.90
17170;DHT22;8700;48.222;16.342;2024-01-16T02:24:33;1.90;99.90
17170;DHT22;8700;48.222;16.342;2024-01-16T02:27:56;1.90;99.90
17170;DHT22;8700;48.222;16.342;2024-01-16T02:31:18;2.00;99.90
17170;DHT22;8700;48.222;16.342;2024-01-16T02:34:41;1.90;99.90
17170;DHT22;8700;48.222;16.342;2024-01-16T02:38:05;1.90;99.90
17170;DHT22;8700;48.222;16.342;2024-01-16T02:41:28;1.90;99.90
17170;DHT22;8700;48.222;16.342;2024-01-16T02:44:51;1.90;99.90
17170;DHT22;8700;48.222;16.342;2024-01-16T02:48:13;1.70;99.90
17170;DHT22;8700;48.222;16.342;2024-01-16T02:51:36;1.70;99.90
17170;DHT22;8700;48.222;16.342;2024-01-16T02:54:58;1.70;99.90
17170;DHT22;8700;48.222;16.342;2024-01-16T02:58:23;1.70;99.90
17170;DHT22;8700;48.222;16.342;2024-01-16T03:01:46;1.70;99.90
17170;DHT22;8700;48.222;16.342;2024-01-16T03:05:08;1.60;99.90
17170;DHT22;8700;48.222;16.342;2024-01-16T03:08:32;1.60;99.90
17170;DHT22;8700;48.222;16.342;2024-01-16T03:11:54;1.50;99.90
17170;DHT22;8700;48.222;16.342;2024-01-16T03:15:19;1.60;99.90
17170;DHT22;8700;48.222;16.342;2024-01-16T03:18:41;1.50;99.90
17170;DHT22;8700;48.222;16.342;2024-01-16T03:22:03;1.50;99.90
17170;DHT22;8700;48.222;16.342;2024-01-16T03:25:25;1.60;99.90
17170;DHT22;8700;48.222;16.342;2024-01-16T03:28:48;1.50;99.90
17170;DHT22;8700;48.222;16.342;2024-01-16T03:32:11;1.70;99.90
17170;DHT22;8700;48.222;16.342;2024-01-16T03:35:35;1.70;99.90
17170;DHT22;8700;48.222;16.342;2024-01-16T03:38:57;1.70;99.90
17170;DHT22;8700;48.222;16.342;2024-01-16T03:42:20;1.70;99.90
17170;DHT22;8700;48.222;16.342;2024-01-16T03:45:42;1.60;99.90
17170;DHT22;8700;48.222;16.342;2024-01-16T03:49:07;1.50;99.90
17170;DHT22;8700;48.222;16.342;2024-01-16T03:52:29;1.50;99.90
17170;DHT22;8700;48.222;16.342;2024-01-16T03:55:52;1.60;99.90
17170;DHT22;8700;48.222;16.342;2024-01-16T03:59:14;1.60;99.90
17170;DHT22;8700;48.222;16.342;2024-01-16T04:02:38;1.80;99.90
17170;DHT22;8700;48.222;16.342;2024-01-16T04:06:01;1.80;99.90
17170;DHT22;8700;48.222;16.342;2024-01-16T04:09:24;1.70;99.90
17170;DHT22;8700;48.222;16.342;2024-01-16T04:12:46;1.60;99.90
17170;DHT22;8700;48.222;16.342;2024-01-16T04:16:09;1.50;99.90
17170;DHT22;8700;48.222;16.342;2024-01-16T04:19:33;1.50;99.90
17170;DHT22;8700;48.222;16.342;2024-01-16T04:22:58;1.50;99.90
17170;DHT22;8700;48.222;16.342;2024-01-16T04:26:20;1.50;99.90
17170;DHT22;8700;48.222;16.342;2024-01-16T04:29:44;1.50;99.90
17170;DHT22;8700;48.222;16.342;2024-01-16T04:33:06;1.40;99.90
17170;DHT22;8700;48.222;16.342;2024-01-16T04:36:29;1.40;99.90
17170;DHT22;8700;48.222;16.342;2024-01-16T04:39:52;1.40;99.90
17170;DHT22;8700;48.222;16.342;2024-01-16T04:43:15;1.40;99.90
17170;DHT22;8700;48.222;16.342;2024-01-16T04:46:37;1.40;99.90
17170;DHT22;8700;48.222;16.342;2024-01-16T04:49:59;1.40;99.90
17170;DHT22;8700;48.222;16.342;2024-01-16T04:53:22;1.40;99.90
17170;DHT22;8700;48.222;16.342;2024-01-16T04:56:46;1.40;99.90
17170;DHT22;8700;48.222;16.342;2024-01-16T05:00:08;1.40;99.90
17170;DHT22;8700;48.222;16.342;2024-01-16T05:03:31;1.40;99.90
17170;DHT22;8700;48.222;16.342;2024-01-16T05:06:53;1.50;99.90
17170;DHT22;8700;48.222;16.342;2024-01-16T05:10:16;1.60;99.90
17170;DHT22;8700;48.222;16.342;2024-01-16T05:13:40;1.60;99.90
17170;DHT22;8700;48.222;16.342;2024-01-16T05:17:03;1.60;99.90
17170;DHT22;8700;48.222;16.342;2024-01-16T05:20:26;1.60;99.90
17170;DHT22;8700;48.222;16.342;2024-01-16T05:23:50;1.60;99.90
17170;DHT22;8700;48.222;16.342;2024-01-16T05:27:12;1.50;99.90
17170;DHT22;8700;48.222;16.342;2024-01-16T05:30:36;1.70;99.90
17170;DHT22;8700;48.222;16.342;2024-01-16T05:33:59;1.70;99.90
17170;DHT22;8700;48.222;16.342;2024-01-16T05:37:22;1.80;99.90
17170;DHT22;8700;48.222;16.342;2024-01-16T05:40:44;2.00;99.90
17170;DHT22;8700;48.222;16.342;2024-01-16T05:44:06;1.70;99.90
17170;DHT22;8700;48.222;16.342;2024-01-16T05:47:30;1.80;99.90
17170;DHT22;8700;48.222;16.342;2024-01-16T05:50:53;1.90;99.90
17170;DHT22;8700;48.222;16.342;2024-01-16T05:54:15;1.90;99.90
17170;DHT22;8700;48.222;16.342;2024-01-16T05:57:38;1.70;99.90
17170;DHT22;8700;48.222;16.342;2024-01-16T06:01:00;1.70;99.90
17170;DHT22;8700;48.222;16.342;2024-01-16T06:04:24;1.70;99.90
17170;DHT22;8700;48.222;16.342;2024-01-16T06:07:46;1.60;99.90
17170;DHT22;8700;48.222;16.342;2024-01-16T06:11:09;1.60;99.90
17170;DHT22;8700;48.222;16.342;2024-01-16T06:14:31;1.70;99.90
17170;DHT22;8700;48.222;16.342;2024-01-16T06:17:53;1.70;99.90
17170;DHT22;8700;48.222;16.342;2024-01-16T06:21:17;1.80;99.90
17170;DHT22;8700;48.222;16.342;2024-01-16T06:24:39;1.80;99.90
17170;DHT22;8700;48.222;16.342;2024-01-16T06:28:02;1.70;99.90
17170;DHT22;8700;48.222;16.342;2024-01-16T06:31:25;1.90;99.90
17170;DHT22;8700;48.222;16.342;2024-01-16T06:34:48;2.00;99.90
17170;DHT22;8700;48.222;16.342;2024-01-16T06:38:12;1.90;99.90
17170;DHT22;8700;48.222;16.342;2024-01-16T06:41:35;2.00;99.90
17170;DHT22;8700;48.222;16.342;2024-01-16T06:44:58;1.90;99.90
17170;DHT22;8700;48.222;16.342;2024-01-16T06:48:20;1.90;99.90
17170;DHT22;8700;48.222;16.342;2024-01-16T06:51:42;2.00;99.90
17170;DHT22;8700;48.222;16.342;2024-01-16T06:55:06;1.80;99.90
17170;DHT22;8700;48.222;16.342;2024-01-16T06:58:29;1.80;99.90
17170;DHT22;8700;48.222;16.342;2024-01-16T07:01:52;1.90;99.90
17170;DHT22;8700;48.222;16.342;2024-01-16T07:05:15;2.00;99.90
17170;DHT22;8700;48.222;16.342;2024-01-16T07:08:38;1.90;99.90
17170;DHT22;8700;48.222;16.342;2024-01-16T07:12:02;1.90;99.90
17170;DHT22;8700;48.222;16.342;2024-01-16T07:15:25;1.90;99.90
17170;DHT22;8700;48.222;16.342;2024-01-16T07:18:48;1.90;99.90
17170;DHT22;8700;48.222;16.342;2024-01-16T07:22:10;1.90;99.90
17170;DHT22;8700;48.222;16.342;2024-01-16T07:25:35;1.80;99.90
17170;DHT22;8700;48.222;16.342;2024-01-16T07:28:59;1.90;99.90
17170;DHT22;8700;48.222;16.342;2024-01-16T07:32:22;1.90;99.90
17170;DHT22;8700;48.222;16.342;2024-01-16T07:35:44;2.10;99.90
17170;DHT22;8700;48.222;16.342;2024-01-16T07:39:08;2.00;99.90
17170;DHT22;8700;48.222;16.342;2024-01-16T07:42:31;2.00;99.90
17170;DHT22;8700;48.222;16.342;2024-01-16T07:50:28;2.00;99.90
17170;DHT22;8700;48.222;16.342;2024-01-16T07:54:03;2.20;99.90
17170;DHT22;8700;48.222;16.342;2024-01-16T07:57:26;2.10;99.90
17170;DHT22;8700;48.222;16.342;2024-01-16T08:00:49;2.30;99.90
17170;DHT22;8700;48.222;16.342;2024-01-16T08:04:11;2.30;99.90
17170;DHT22;8700;48.222;16.342;2024-01-16T08:07:36;2.30;99.90
17170;DHT22;8700;48.222;16.342;2024-01-16T08:10:58;2.20;99.90
17170;DHT22;8700;48.222;16.342;2024-01-16T08:14:21;2.40;99.90
17170;DHT22;8700;48.222;16.342;2024-01-16T08:17:43;2.60;99.90
17170;DHT22;8700;48.222;16.342;2024-01-16T08:21:06;2.60;99.90
17170;DHT22;8700;48.222;16.342;2024-01-16T08:24:30;2.80;99.90
17170;DHT22;8700;48.222;16.342;2024-01-16T08:27:53;2.90;99.90
17170;DHT22;8700;48.222;16.342;2024-01-16T08:31:17;3.10;99.40
17170;DHT22;8700;48.222;16.342;2024-01-16T08:34:40;3.00;98.90
17170;DHT22;8700;48.222;16.342;2024-01-16T08:47:28;3.50;97.10
17170;DHT22;8700;48.222;16.342;2024-01-16T08:50:51;3.40;96.00
17170;DHT22;8700;48.222;16.342;2024-01-16T08:54:14;3.10;96.50
17170;DHT22;8700;48.222;16.342;2024-01-16T08:57:37;3.10;96.00
17170;DHT22;8700;48.222;16.342;2024-01-16T09:01:00;3.40;96.50
17170;DHT22;8700;48.222;16.342;2024-01-16T09:04:23;3.40;95.40
17170;DHT22;8700;48.222;16.342;2024-01-16T09:07:46;3.60;95.70
17170;DHT22;8700;48.222;16.342;2024-01-16T09:11:09;3.40;95.10
17170;DHT22;8700;48.222;16.342;2024-01-16T09:14:32;3.30;94.80
17170;DHT22;8700;48.222;16.342;2024-01-16T09:22:31;3.50;94.20
17170;DHT22;8700;48.222;16.342;2024-01-16T09:29:22;3.80;93.00
17170;DHT22;8700;48.222;16.342;2024-01-16T09:32:44;4.10;93.10
17170;DHT22;8700;48.222;16.342;2024-01-16T09:36:07;4.10;92.30
17170;DHT22;8700;48.222;16.342;2024-01-16T09:39:30;4.10;92.20
17170;DHT22;8700;48.222;16.342;2024-01-16T09:42:52;4.10;92.60
17170;DHT22;8700;48.222;16.342;2024-01-16T09:46:14;4.00;92.80
17170;DHT22;8700;48.222;16.342;2024-01-16T09:49:37;4.00;93.10
17170;DHT22;8700;48.222;16.342;2024-01-16T09:52:59;4.10;93.00
17170;DHT22;8700;48.222;16.342;2024-01-16T09:56:22;4.10;93.40
17170;DHT22;8700;48.222;16.342;2024-01-16T09:59:44;4.10;93.30
17170;DHT22;8700;48.222;16.342;2024-01-16T10:03:06;4.00;93.70
17170;DHT22;8700;48.222;16.342;2024-01-16T10:06:27;3.90;93.90
17170;DHT22;8700;48.222;16.342;2024-01-16T10:09:49;3.90;93.60
17170;DHT22;8700;48.222;16.342;2024-01-16T10:13:12;4.10;93.60
17170;DHT22;8700;48.222;16.342;2024-01-16T10:16:56;4.20;93.50
17170;DHT22;8700;48.222;16.342;2024-01-16T10:20:31;4.10;93.80
17170;DHT22;8700;48.222;16.342;2024-01-16T10:23:53;4.20;94.00
17170;DHT22;8700;48.222;16.342;2024-01-16T10:27:15;4.30;93.50
17170;DHT22;8700;48.222;16.342;2024-01-16T10:30:39;4.20;93.20
17170;DHT22;8700;48.222;16.342;2024-01-16T10:34:00;4.40;93.60
17170;DHT22;8700;48.222;16.342;2024-01-16T10:37:22;4.60;92.70
17170;DHT22;8700;48.222;16.342;2024-01-16T10:40:44;5.00;92.80
17170;DHT22;8700;48.222;16.342;2024-01-16T10:44:06;4.70;92.40
17170;DHT22;8700;48.222;16.342;2024-01-16T10:47:29;4.50;92.70
17170;DHT22;8700;48.222;16.342;2024-01-16T10:50:51;4.60;92.40
17170;DHT22;8700;48.222;16.342;2024-01-16T10:54:14;4.70;92.00
17170;DHT22;8700;48.222;16.342;2024-01-16T10:57:38;4.80;91.90
17170;DHT22;8700;48.222;16.342;2024-01-16T11:01:02;5.10;91.40
17170;DHT22;8700;48.222;16.342;2024-01-16T11:04:27;6.40;90.10
17170;DHT22;8700;48.222;16.342;2024-01-16T11:07:50;6.80;85.80
17170;DHT22;8700;48.222;16.342;2024-01-16T11:11:13;7.00;85.50
17170;DHT22;8700;48.222;16.342;2024-01-16T11:14:35;7.40;83.20
17170;DHT22;8700;48.222;16.342;2024-01-16T11:17:58;8.60;81.30
17170;DHT22;8700;48.222;16.342;2024-01-16T11:21:21;8.60;76.70
17170;DHT22;8700;48.222;16.342;2024-01-16T11:24:43;8.80;77.20
17170;DHT22;8700;48.222;16.342;2024-01-16T11:28:09;9.90;72.40
17170;DHT22;8700;48.222;16.342;2024-01-16T11:31:31;9.20;70.20
17170;DHT22;8700;48.222;16.342;2024-01-16T11:34:53;8.50;71.20
17170;DHT22;8700;48.222;16.342;2024-01-16T11:38:18;8.30;73.60
17170;DHT22;8700;48.222;16.342;2024-01-16T11:41:52;9.30;70.20
17170;DHT22;8700;48.222;16.342;2024-01-16T11:49:08;8.70;69.80
17170;DHT22;8700;48.222;16.342;2024-01-16T11:52:42;8.30;68.80
17170;DHT22;8700;48.222;16.342;2024-01-16T11:56:41;7.90;68.80
17170;DHT22;8700;48.222;16.342;2024-01-16T12:00:18;6.80;71.20
17170;DHT22;8700;48.222;16.342;2024-01-16T12:03:40;7.20;70.50
17170;DHT22;8700;48.222;16.342;2024-01-16T12:07:02;7.20;71.30
17170;DHT22;8700;48.222;16.342;2024-01-16T12:10:24;7.70;68.60
17170;DHT22;8700;48.222;16.342;2024-01-16T12:14:01;7.60;68.70
17170;DHT22;8700;48.222;16.342;2024-01-16T12:17:22;7.30;68.70
17170;DHT22;8700;48.222;16.342;2024-01-16T12:20:43;7.00;69.60
17170;DHT22;8700;48.222;16.342;2024-01-16T12:24:05;7.30;69.90
17170;DHT22;8700;48.222;16.342;2024-01-16T12:27:26;7.10;69.00
17170;DHT22;8700;48.222;16.342;2024-01-16T12:30:50;6.10;70.50
17170;DHT22;8700;48.222;16.342;2024-01-16T12:34:12;5.90;70.90
17170;DHT22;8700;48.222;16.342;2024-01-16T12:37:33;6.00;71.80
17170;DHT22;8700;48.222;16.342;2024-01-16T12:40:54;6.10;71.20
17170;DHT22;8700;48.222;16.342;2024-01-16T12:44:15;5.80;71.20
17170;DHT22;8700;48.222;16.342;2024-01-16T12:47:39;5.40;71.20
17170;DHT22;8700;48.222;16.342;2024-01-16T12:51:00;5.30;71.80
17170;DHT22;8700;48.222;16.342;2024-01-16T12:54:21;5.50;72.00
17170;DHT22;8700;48.222;16.342;2024-01-16T12:57:44;5.70;71.60
17170;DHT22;8700;48.222;16.342;2024-01-16T13:01:21;6.00;71.50
17170;DHT22;8700;48.222;16.342;2024-01-16T13:04:44;6.30;70.80
17170;DHT22;8700;48.222;16.342;2024-01-16T13:08:05;6.30;70.10
17170;DHT22;8700;48.222;16.342;2024-01-16T13:11:26;6.60;70.30
17170;DHT22;8700;48.222;16.342;2024-01-16T13:14:47;6.70;69.40
17170;DHT22;8700;48.222;16.342;2024-01-16T13:18:18;6.60;69.30
17170;DHT22;8700;48.222;16.342;2024-01-16T13:21:41;6.20;69.10
17170;DHT22;8700;48.222;16.342;2024-01-16T13:25:02;6.40;69.40
17170;DHT22;8700;48.222;16.342;2024-01-16T13:28:25;6.60;68.60
17170;DHT22;8700;48.222;16.342;2024-01-16T13:31:47;6.40;68.20
17170;DHT22;8700;48.222;16.342;2024-01-16T13:35:08;6.50;68.40
17170;DHT22;8700;48.222;16.342;2024-01-16T13:38:33;6.30;67.70
17170;DHT22;8700;48.222;16.342;2024-01-16T13:41:54;6.20;68.70
17170;DHT22;8700;48.222;16.342;2024-01-16T13:45:15;6.40;68.90
17170;DHT22;8700;48.222;16.342;2024-01-16T13:48:38;6.50;68.70
17170;DHT22;8700;48.222;16.342;2024-01-16T13:52:00;6.90;68.80
17170;DHT22;8700;48.222;16.342;2024-01-16T13:55:24;6.90;68.10
17170;DHT22;8700;48.222;16.342;2024-01-16T13:58:46;6.70;69.50
17170;DHT22;8700;48.222;16.342;2024-01-16T14:02:07;6.90;68.00
17170;DHT22;8700;48.222;16.342;2024-01-16T14:05:29;6.40;68.20
17170;DHT22;8700;48.222;16.342;2024-01-16T14:08:51;6.60;68.30
17170;DHT22;8700;48.222;16.342;2024-01-16T14:12:14;6.60;68.20
17170;DHT22;8700;48.222;16.342;2024-01-16T14:15:35;6.50;68.00
17170;DHT22;8700;48.222;16.342;2024-01-16T14:18:56;6.40;68.30
17170;DHT22;8700;48.222;16.342;2024-01-16T14:22:18;6.30;68.20
17170;DHT22;8700;48.222;16.342;2024-01-16T14:25:39;6.10;68.20
17170;DHT22;8700;48.222;16.342;2024-01-16T14:29:02;6.00;68.70
17170;DHT22;8700;48.222;16.342;2024-01-16T14:32:22;6.00;69.00
17170;DHT22;8700;48.222;16.342;2024-01-16T14:35:44;5.70;69.90
17170;DHT22;8700;48.222;16.342;2024-01-16T14:39:05;5.80;69.80
17170;DHT22;8700;48.222;16.342;2024-01-16T14:42:27;5.80;70.30
17170;DHT22;8700;48.222;16.342;2024-01-16T14:45:50;5.90;70.70
17170;DHT22;8700;48.222;16.342;2024-01-16T14:49:11;6.00;70.70
17170;DHT22;8700;48.222;16.342;2024-01-16T14:52:32;5.90;71.20
17170;DHT22;8700;48.222;16.342;2024-01-16T14:55:53;5.80;71.80
17170;DHT22;8700;48.222;16.342;2024-01-16T14:59:14;5.80;71.50
17170;DHT22;8700;48.222;16.342;2024-01-16T15:02:37;5.70;72.10
17170;DHT22;8700;48.222;16.342;2024-01-16T15:05:58;5.70;72.40
17170;DHT22;8700;48.222;16.342;2024-01-16T15:09:19;5.70;72.30
17170;DHT22;8700;48.222;16.342;2024-01-16T15:12:41;5.70;72.80
17170;DHT22;8700;48.222;16.342;2024-01-16T15:16:03;5.50;73.40
17170;DHT22;8700;48.222;16.342;2024-01-16T15:19:26;5.50;73.20
17170;DHT22;8700;48.222;16.342;2024-01-16T15:22:47;5.40;73.50
17170;DHT22;8700;48.222;16.342;2024-01-16T15:26:12;5.50;73.80
17170;DHT22;8700;48.222;16.342;2024-01-16T15:29:38;5.40;74.10
17170;DHT22;8700;48.222;16.342;2024-01-16T15:33:01;5.40;73.70
17170;DHT22;8700;48.222;16.342;2024-01-16T15:36:24;5.40;73.90
17170;DHT22;8700;48.222;16.342;2024-01-16T15:39:46;5.40;73.90
17170;DHT22;8700;48.222;16.342;2024-01-16T15:43:07;5.50;73.60
17170;DHT22;8700;48.222;16.342;2024-01-16T15:46:28;5.30;73.70
17170;DHT22;8700;48.222;16.342;2024-01-16T15:49:49;5.20;74.30
17170;DHT22;8700;48.222;16.342;2024-01-16T15:53:12;5.10;74.80
17170;DHT22;8700;48.222;16.342;2024-01-16T15:56:35;5.20;74.20
17170;DHT22;8700;48.222;16.342;2024-01-16T15:59:56;5.20;74.40
17170;DHT22;8700;48.222;16.342;2024-01-16T16:03:17;5.20;74.40
17170;DHT22;8700;48.222;16.342;2024-01-16T16:06:40;5.00;74.30
17170;DHT22;8700;48.222;16.342;2024-01-16T16:10:05;5.00;73.90
17170;DHT22;8700;48.222;16.342;2024-01-16T16:13:26;4.90;74.20
17170;DHT22;8700;48.222;16.342;2024-01-16T16:16:50;5.10;74.20
17170;DHT22;8700;48.222;16.342;2024-01-16T16:20:12;5.10;74.20
17170;DHT22;8700;48.222;16.342;2024-01-16T16:23:35;5.10;74.70
17170;DHT22;8700;48.222;16.342;2024-01-16T16:26:58;5.00;74.50
17170;DHT22;8700;48.222;16.342;2024-01-16T16:30:19;5.10;74.30
17170;DHT22;8700;48.222;16.342;2024-01-16T16:33:41;5.00;73.60
17170;DHT22;8700;48.222;16.342;2024-01-16T16:37:02;4.80;74.90
17170;DHT22;8700;48.222;16.342;2024-01-16T16:40:23;4.60;75.30
17170;DHT22;8700;48.222;16.342;2024-01-16T16:43:46;4.50;75.20
17170;DHT22;8700;48.222;16.342;2024-01-16T16:47:07;4.60;75.30
17170;DHT22;8700;48.222;16.342;2024-01-16T16:50:28;4.70;76.00
17170;DHT22;8700;48.222;16.342;2024-01-16T16:53:50;4.90;75.30
17170;DHT22;8700;48.222;16.342;2024-01-16T16:57:11;5.00;75.10
17170;DHT22;8700;48.222;16.342;2024-01-16T17:00:34;5.00;75.00
17170;DHT22;8700;48.222;16.342;2024-01-16T17:03:55;4.80;74.60
17170;DHT22;8700;48.222;16.342;2024-01-16T17:07:16;4.80;76.10
17170;DHT22;8700;48.222;16.342;2024-01-16T17:10:38;5.00;75.20
17170;DHT22;8700;48.222;16.342;2024-01-16T17:14:01;5.10;75.10
17170;DHT22;8700;48.222;16.342;2024-01-16T17:17:25;5.10;75.50
17170;DHT22;8700;48.222;16.342;2024-01-16T17:20:46;4.90;75.80
17170;DHT22;8700;48.222;16.342;2024-01-16T17:24:08;4.90;76.30
17170;DHT22;8700;48.222;16.342;2024-01-16T17:27:29;5.00;76.30
17170;DHT22;8700;48.222;16.342;2024-01-16T17:30:51;5.10;76.30
17170;DHT22;8700;48.222;16.342;2024-01-16T17:34:14;5.10;76.30
17170;DHT22;8700;48.222;16.342;2024-01-16T17:37:36;5.00;76.30
17170;DHT22;8700;48.222;16.342;2024-01-16T17:40:57;5.00;76.10
17170;DHT22;8700;48.222;16.342;2024-01-16T17:44:19;5.10;76.40
17170;DHT22;8700;48.222;16.342;2024-01-16T17:47:41;4.80;75.60
17170;DHT22;8700;48.222;16.342;2024-01-16T17:51:04;4.80;75.90
17170;DHT22;8700;48.222;16.342;2024-01-16T17:54:26;4.80;76.30
17170;DHT22;8700;48.222;16.342;2024-01-16T17:57:49;4.80;76.70
17170;DHT22;8700;48.222;16.342;2024-01-16T18:01:10;4.90;76.80
17170;DHT22;8700;48.222;16.342;2024-01-16T18:04:31;4.90;76.60
17170;DHT22;8700;48.222;16.342;2024-01-16T18:07:53;4.90;76.70
17170;DHT22;8700;48.222;16.342;2024-01-16T18:11:14;4.90;76.90
17170;DHT22;8700;48.222;16.342;2024-01-16T18:14:35;4.90;77.20
17170;DHT22;8700;48.222;16.342;2024-01-16T18:17:58;4.80;78.10
17170;DHT22;8700;48.222;16.342;2024-01-16T18:21:21;4.80;79.20
17170;DHT22;8700;48.222;16.342;2024-01-16T18:24:43;4.80;79.50
17170;DHT22;8700;48.222;16.342;2024-01-16T18:28:04;4.60;80.70
17170;DHT22;8700;48.222;16.342;2024-01-16T18:31:26;4.50;81.10
17170;DHT22;8700;48.222;16.342;2024-01-16T18:34:47;4.30;82.90
17170;DHT22;8700;48.222;16.342;2024-01-16T18:38:08;4.20;82.80
17170;DHT22;8700;48.222;16.342;2024-01-16T18:41:32;4.10;83.00
17170;DHT22;8700;48.222;16.342;2024-01-16T18:44:53;4.10;83.60
17170;DHT22;8700;48.222;16.342;2024-01-16T18:48:14;4.00;85.10
17170;DHT22;8700;48.222;16.342;2024-01-16T18:51:35;4.00;84.20
17170;DHT22;8700;48.222;16.342;2024-01-16T18:54:56;4.00;85.60
17170;DHT22;8700;48.222;16.342;2024-01-16T18:58:19;4.00;86.20
17170;DHT22;8700;48.222;16.342;2024-01-16T19:01:40;4.00;86.30
17170;DHT22;8700;48.222;16.342;2024-01-16T19:05:01;3.90;86.70
17170;DHT22;8700;48.222;16.342;2024-01-16T19:08:23;4.00;86.70
17170;DHT22;8700;48.222;16.342;2024-01-16T19:11:48;3.90;88.20
17170;DHT22;8700;48.222;16.342;2024-01-16T19:15:15;3.60;89.40
17170;DHT22;8700;48.222;16.342;2024-01-16T19:18:37;3.50;90.10
17170;DHT22;8700;48.222;16.342;2024-01-16T19:22:00;3.60;90.20
17170;DHT22;8700;48.222;16.342;2024-01-16T19:25:23;3.60;90.40
17170;DHT22;8700;48.222;16.342;2024-01-16T19:28:45;3.70;90.40
17170;DHT22;8700;48.222;16.342;2024-01-16T19:32:07;3.70;90.50
17170;DHT22;8700;48.222;16.342;2024-01-16T19:35:29;3.70;90.40
17170;DHT22;8700;48.222;16.342;2024-01-16T19:38:50;3.60;90.70
17170;DHT22;8700;48.222;16.342;2024-01-16T19:42:11;3.70;91.00
17170;DHT22;8700;48.222;16.342;2024-01-16T19:45:33;3.70;90.70
17170;DHT22;8700;48.222;16.342;2024-01-16T19:48:55;3.70;91.10
17170;DHT22;8700;48.222;16.342;2024-01-16T19:52:16;3.10;92.40
17170;DHT22;8700;48.222;16.342;2024-01-16T19:55:38;3.10;93.20
17170;DHT22;8700;48.222;16.342;2024-01-16T19:59:00;3.20;92.60
17170;DHT22;8700;48.222;16.342;2024-01-16T20:02:24;3.40;92.20
17170;DHT22;8700;48.222;16.342;2024-01-16T20:05:46;3.30;92.60
17170;DHT22;8700;48.222;16.342;2024-01-16T20:09:07;3.30;93.10
17170;DHT22;8700;48.222;16.342;2024-01-16T20:12:35;3.30;93.10
17170;DHT22;8700;48.222;16.342;2024-01-16T20:15:56;3.30;92.80
17170;DHT22;8700;48.222;16.342;2024-01-16T20:19:17;3.20;93.70
17170;DHT22;8700;48.222;16.342;2024-01-16T20:22:40;3.10;94.20
17170;DHT22;8700;48.222;16.342;2024-01-16T20:26:01;3.20;94.20
17170;DHT22;8700;48.222;16.342;2024-01-16T20:29:22;3.10;94.10
17170;DHT22;8700;48.222;16.342;2024-01-16T20:32:44;3.00;94.20
17170;DHT22;8700;48.222;16.342;2024-01-16T20:36:05;3.00;94.20
17170;DHT22;8700;48.222;16.342;2024-01-16T20:39:30;3.00;94.20
17170;DHT22;8700;48.222;16.342;2024-01-16T20:42:53;3.00;94.10
17170;DHT22;8700;48.222;16.342;2024-01-16T20:46:15;2.90;94.40
17170;DHT22;8700;48.222;16.342;2024-01-16T20:49:36;2.90;94.50
17170;DHT22;8700;48.222;16.342;2024-01-16T20:52:57;2.80;94.60
17170;DHT22;8700;48.222;16.342;2024-01-16T20:56:20;2.80;95.20
17170;DHT22;8700;48.222;16.342;2024-01-16T20:59:42;2.80;95.70
17170;DHT22;8700;48.222;16.342;2024-01-16T21:03:03;2.80;95.30
17170;DHT22;8700;48.222;16.342;2024-01-16T21:06:28;2.80;95.60
17170;DHT22;8700;48.222;16.342;2024-01-16T21:09:49;2.70;95.80
17170;DHT22;8700;48.222;16.342;2024-01-16T21:13:13;2.70;95.70
17170;DHT22;8700;48.222;16.342;2024-01-16T21:16:34;2.60;95.80
17170;DHT22;8700;48.222;16.342;2024-01-16T21:19:56;2.50;95.80
17170;DHT22;8700;48.222;16.342;2024-01-16T21:23:17;2.40;96.00
17170;DHT22;8700;48.222;16.342;2024-01-16T21:26:42;2.40;96.10
17170;DHT22;8700;48.222;16.342;2024-01-16T21:30:06;2.30;96.30
17170;DHT22;8700;48.222;16.342;2024-01-16T21:33:28;2.20;96.70
17170;DHT22;8700;48.222;16.342;2024-01-16T21:36:52;2.00;97.40
17170;DHT22;8700;48.222;16.342;2024-01-16T21:40:14;1.90;97.90
17170;DHT22;8700;48.222;16.342;2024-01-16T21:43:35;1.80;98.40
17170;DHT22;8700;48.222;16.342;2024-01-16T21:46:58;1.70;99.10
17170;DHT22;8700;48.222;16.342;2024-01-16T21:50:19;1.60;99.70
17170;DHT22;8700;48.222;16.342;2024-01-16T21:53:40;1.60;99.90
17170;DHT22;8700;48.222;16.342;2024-01-16T21:57:01;1.50;99.90
17170;DHT22;8700;48.222;16.342;2024-01-16T22:00:22;1.60;99.90
17170;DHT22;8700;48.222;16.342;2024-01-16T22:03:45;1.60;99.90
17170;DHT22;8700;48.222;16.342;2024-01-16T22:07:06;1.50;99.90